27 maja 2022

Czas Kod Pogoda Temp. Widoczność Sufit Wiatr METAR/SPECI
7:00 pm
V
73 °F 6¼ mi+ - 330° 330° 8 kt METAR LFLW 271700Z AUTO 33008KT 280V360 CAVOK 23/12 Q1022 NOSIG
6:30 pm
V
75 °F 6¼ mi+ - 310° 310° 9 kt METAR LFLW 271630Z AUTO 31009KT 280V350 CAVOK 24/12 Q1022 NOSIG
6:00 pm
V
75 °F 6¼ mi+ - 330° 330° 9 kt METAR LFLW 271600Z AUTO 33009KT 290V040 CAVOK 24/13 Q1022 NOSIG
5:30 pm
V
75 °F 6¼ mi+ - 320° 320° 8 kt METAR LFLW 271530Z AUTO 32008KT 280V010 CAVOK 24/13 Q1022 NOSIG
5:00 pm
V
75 °F 6¼ mi+ - 330° 330° 8 kt METAR LFLW 271500Z AUTO 33008KT 260V360 CAVOK 24/13 Q1022 NOSIG
4:30 pm
V
75 °F 6¼ mi+ - 310° 310° 9 kt METAR LFLW 271430Z AUTO 31009KT 260V350 CAVOK 24/12 Q1023 NOSIG
Starsze dane

Pobierz naszą aplikację

Łatwy dostęp do całej pogody lotniczej na telefonie komórkowym i tablecie.
Z wieloma funkcjami niedostępnymi na stronie internetowej, takimi jak wsparcie offline i osobista lista lotnisk.

My i osoby trzecie śledzimy twoje zachowanie w internecie na naszej stronie za pomocą plików cookie. Jeśli kontynuujesz, zakładamy, że zgadzasz się z naszą polityką plików cookie. Dowiedz się więcej